sensor_id;sensor_type;location;lat;lon;timestamp;pressure;altitude;pressure_sealevel;temperature;humidity
85922;BME280;76459;41.484;22.090;2024-03-25T00:01:23;98941.50;;;10.58;55.07
85922;BME280;76459;41.484;22.090;2024-03-25T00:03:50;98941.63;;;10.53;55.81
85922;BME280;76459;41.484;22.090;2024-03-25T00:06:16;98930.09;;;10.51;55.67
85922;BME280;76459;41.484;22.090;2024-03-25T00:08:41;98944.47;;;10.48;56.59
85922;BME280;76459;41.484;22.090;2024-03-25T00:11:07;98937.75;;;10.54;57.54
85922;BME280;76459;41.484;22.090;2024-03-25T00:13:33;98953.25;;;10.50;58.72
85922;BME280;76459;41.484;22.090;2024-03-25T00:15:58;98943.06;;;10.37;59.26
85922;BME280;76459;41.484;22.090;2024-03-25T00:18:24;98944.59;;;10.29;59.94
85922;BME280;76459;41.484;22.090;2024-03-25T00:20:50;98946.13;;;10.35;60.41
85922;BME280;76459;41.484;22.090;2024-03-25T00:23:17;98951.13;;;10.33;60.04
85922;BME280;76459;41.484;22.090;2024-03-25T00:25:43;98945.81;;;10.37;60.70
85922;BME280;76459;41.484;22.090;2024-03-25T00:28:08;98958.16;;;10.39;61.24
85922;BME280;76459;41.484;22.090;2024-03-25T00:30:34;98956.03;;;10.36;61.84
85922;BME280;76459;41.484;22.090;2024-03-25T00:32:59;98954.72;;;10.34;62.08
85922;BME280;76459;41.484;22.090;2024-03-25T00:35:25;98943.78;;;10.29;62.51
85922;BME280;76459;41.484;22.090;2024-03-25T00:37:50;98944.81;;;10.33;63.07
85922;BME280;76459;41.484;22.090;2024-03-25T00:40:16;98943.47;;;10.30;63.78
85922;BME280;76459;41.484;22.090;2024-03-25T00:42:42;98952.34;;;10.14;64.57
85922;BME280;76459;41.484;22.090;2024-03-25T00:45:08;98944.81;;;10.05;65.29
85922;BME280;76459;41.484;22.090;2024-03-25T00:47:33;98942.56;;;10.07;65.14
85922;BME280;76459;41.484;22.090;2024-03-25T00:49:59;98926.25;;;9.97;65.64
85922;BME280;76459;41.484;22.090;2024-03-25T00:52:24;98925.25;;;9.93;65.55
85922;BME280;76459;41.484;22.090;2024-03-25T00:54:50;98913.22;;;9.89;66.44
85922;BME280;76459;41.484;22.090;2024-03-25T00:57:15;98906.91;;;9.61;67.47
85922;BME280;76459;41.484;22.090;2024-03-25T00:59:41;98911.47;;;9.66;67.28
85922;BME280;76459;41.484;22.090;2024-03-25T01:02:07;98919.09;;;9.69;66.87
85922;BME280;76459;41.484;22.090;2024-03-25T01:04:33;98922.66;;;9.69;67.45
85922;BME280;76459;41.484;22.090;2024-03-25T01:06:59;98920.53;;;9.66;66.24
85922;BME280;76459;41.484;22.090;2024-03-25T01:09:24;98901.97;;;9.44;66.86
85922;BME280;76459;41.484;22.090;2024-03-25T01:11:51;98906.66;;;9.44;66.83
85922;BME280;76459;41.484;22.090;2024-03-25T01:14:16;98901.59;;;9.51;66.95
85922;BME280;76459;41.484;22.090;2024-03-25T01:16:42;98893.00;;;9.39;66.26
85922;BME280;76459;41.484;22.090;2024-03-25T01:19:08;98889.31;;;9.16;66.33
85922;BME280;76459;41.484;22.090;2024-03-25T01:21:34;98900.59;;;9.14;66.81
85922;BME280;76459;41.484;22.090;2024-03-25T01:24:00;98897.09;;;9.09;67.19
85922;BME280;76459;41.484;22.090;2024-03-25T01:26:27;98894.91;;;9.11;66.65
85922;BME280;76459;41.484;22.090;2024-03-25T01:28:54;98887.78;;;9.10;66.61
85922;BME280;76459;41.484;22.090;2024-03-25T01:31:19;98896.25;;;8.94;66.64
85922;BME280;76459;41.484;22.090;2024-03-25T01:33:45;98902.06;;;8.93;67.09
85922;BME280;76459;41.484;22.090;2024-03-25T01:36:11;98903.38;;;8.95;66.72
85922;BME280;76459;41.484;22.090;2024-03-25T01:38:42;98903.91;;;8.98;66.50
85922;BME280;76459;41.484;22.090;2024-03-25T01:41:12;98905.31;;;8.95;66.43
85922;BME280;76459;41.484;22.090;2024-03-25T01:43:38;98910.09;;;8.89;66.42
85922;BME280;76459;41.484;22.090;2024-03-25T01:46:05;98914.22;;;8.87;67.06
85922;BME280;76459;41.484;22.090;2024-03-25T01:48:31;98904.00;;;8.92;66.56
85922;BME280;76459;41.484;22.090;2024-03-25T01:50:58;98895.59;;;9.03;66.53
85922;BME280;76459;41.484;22.090;2024-03-25T01:53:24;98906.09;;;9.14;66.54
85922;BME280;76459;41.484;22.090;2024-03-25T01:55:52;98882.19;;;9.15;66.39
85922;BME280;76459;41.484;22.090;2024-03-25T01:58:21;98904.16;;;9.15;65.72
85922;BME280;76459;41.484;22.090;2024-03-25T02:00:49;98906.09;;;9.14;65.88
85922;BME280;76459;41.484;22.090;2024-03-25T02:03:16;98901.84;;;9.22;65.79
85922;BME280;76459;41.484;22.090;2024-03-25T02:05:42;98922.31;;;9.30;65.01
85922;BME280;76459;41.484;22.090;2024-03-25T02:08:09;98915.59;;;9.22;64.93
85922;BME280;76459;41.484;22.090;2024-03-25T02:10:37;98913.72;;;9.17;65.65
85922;BME280;76459;41.484;22.090;2024-03-25T02:13:03;98928.28;;;9.18;65.95
85922;BME280;76459;41.484;22.090;2024-03-25T02:15:29;98910.66;;;9.19;65.69
85922;BME280;76459;41.484;22.090;2024-03-25T02:17:54;98922.72;;;9.37;64.98
85922;BME280;76459;41.484;22.090;2024-03-25T02:20:20;98931.91;;;9.46;64.58
85922;BME280;76459;41.484;22.090;2024-03-25T02:22:45;98917.66;;;9.44;64.37
85922;BME280;76459;41.484;22.090;2024-03-25T02:25:11;98929.69;;;9.48;63.96
85922;BME280;76459;41.484;22.090;2024-03-25T02:27:39;98941.41;;;9.53;63.95
85922;BME280;76459;41.484;22.090;2024-03-25T02:30:12;98935.69;;;9.50;64.41
85922;BME280;76459;41.484;22.090;2024-03-25T02:32:39;98951.84;;;9.38;64.23
85922;BME280;76459;41.484;22.090;2024-03-25T02:35:07;98950.22;;;9.37;64.59
85922;BME280;76459;41.484;22.090;2024-03-25T02:37:36;98956.50;;;9.23;65.26
85922;BME280;76459;41.484;22.090;2024-03-25T02:40:02;98961.56;;;9.16;66.17
85922;BME280;76459;41.484;22.090;2024-03-25T02:42:31;98963.53;;;9.30;65.55
85922;BME280;76459;41.484;22.090;2024-03-25T02:44:58;98968.56;;;9.41;65.87
85922;BME280;76459;41.484;22.090;2024-03-25T02:47:24;98975.59;;;9.47;66.03
85922;BME280;76459;41.484;22.090;2024-03-25T02:49:50;98962.03;;;9.37;66.30
85922;BME280;76459;41.484;22.090;2024-03-25T02:52:17;98971.22;;;9.46;67.10
85922;BME280;76459;41.484;22.090;2024-03-25T02:54:42;98967.97;;;9.58;67.15
85922;BME280;76459;41.484;22.090;2024-03-25T02:57:08;98974.78;;;9.47;67.66
85922;BME280;76459;41.484;22.090;2024-03-25T02:59:33;98967.16;;;9.44;67.30
85922;BME280;76459;41.484;22.090;2024-03-25T03:01:59;98981.09;;;9.47;67.31
85922;BME280;76459;41.484;22.090;2024-03-25T03:04:24;98982.31;;;9.41;68.46
85922;BME280;76459;41.484;22.090;2024-03-25T03:06:50;98985.94;;;9.37;69.36
85922;BME280;76459;41.484;22.090;2024-03-25T03:09:15;98998.16;;;9.31;69.77
85922;BME280;76459;41.484;22.090;2024-03-25T03:11:41;98998.16;;;9.31;69.51
85922;BME280;76459;41.484;22.090;2024-03-25T03:14:07;98988.06;;;9.26;69.00
85922;BME280;76459;41.484;22.090;2024-03-25T03:16:32;99003.53;;;9.22;69.88
85922;BME280;76459;41.484;22.090;2024-03-25T03:18:58;99005.53;;;9.16;69.56
85922;BME280;76459;41.484;22.090;2024-03-25T03:21:23;98998.91;;;8.99;70.81
85922;BME280;76459;41.484;22.090;2024-03-25T03:23:49;99004.13;;;9.00;70.57
85922;BME280;76459;41.484;22.090;2024-03-25T03:26:14;98999.38;;;9.06;69.88
85922;BME280;76459;41.484;22.090;2024-03-25T03:28:40;98989.59;;;9.00;70.70
85922;BME280;76459;41.484;22.090;2024-03-25T03:31:06;98996.09;;;9.04;70.77
85922;BME280;76459;41.484;22.090;2024-03-25T03:33:32;99005.53;;;8.98;69.73
85922;BME280;76459;41.484;22.090;2024-03-25T03:35:58;99021.66;;;8.85;69.51
85922;BME280;76459;41.484;22.090;2024-03-25T03:38:23;99029.97;;;8.80;69.27
85922;BME280;76459;41.484;22.090;2024-03-25T03:40:59;99045.63;;;8.80;70.22
85922;BME280;76459;41.484;22.090;2024-03-25T03:43:25;99054.75;;;8.75;70.00
85922;BME280;76459;41.484;22.090;2024-03-25T03:45:51;99056.75;;;8.70;69.80
85922;BME280;76459;41.484;22.090;2024-03-25T03:48:17;99054.13;;;8.59;70.19
85922;BME280;76459;41.484;22.090;2024-03-25T03:50:43;99057.09;;;8.63;70.06
85922;BME280;76459;41.484;22.090;2024-03-25T03:53:08;99045.84;;;8.41;70.22
85922;BME280;76459;41.484;22.090;2024-03-25T03:55:34;99054.13;;;8.35;71.11
85922;BME280;76459;41.484;22.090;2024-03-25T03:58:00;99042.59;;;8.33;71.37
85922;BME280;76459;41.484;22.090;2024-03-25T04:00:25;99057.41;;;8.37;70.94
85922;BME280;76459;41.484;22.090;2024-03-25T04:02:51;99052.53;;;8.29;72.25
85922;BME280;76459;41.484;22.090;2024-03-25T04:05:16;99052.53;;;8.29;73.70
85922;BME280;76459;41.484;22.090;2024-03-25T04:07:42;99051.56;;;8.44;75.25
85922;BME280;76459;41.484;22.090;2024-03-25T04:10:08;99049.50;;;8.55;72.21
85922;BME280;76459;41.484;22.090;2024-03-25T04:12:34;99046.16;;;8.58;71.32
85922;BME280;76459;41.484;22.090;2024-03-25T04:15:05;99054.78;;;8.51;71.28
85922;BME280;76459;41.484;22.090;2024-03-25T04:17:31;99041.41;;;8.45;71.27
85922;BME280;76459;41.484;22.090;2024-03-25T04:19:59;99032.75;;;8.32;71.42
85922;BME280;76459;41.484;22.090;2024-03-25T04:22:31;99019.91;;;8.04;71.13
85922;BME280;76459;41.484;22.090;2024-03-25T04:24:57;99041.22;;;8.12;71.92
85922;BME280;76459;41.484;22.090;2024-03-25T04:27:22;99034.50;;;8.23;71.63
85922;BME280;76459;41.484;22.090;2024-03-25T04:29:50;99042.69;;;8.28;72.20
85922;BME280;76459;41.484;22.090;2024-03-25T04:32:15;99044.53;;;8.38;71.13
85922;BME280;76459;41.484;22.090;2024-03-25T04:34:41;99058.00;;;8.34;71.57
85922;BME280;76459;41.484;22.090;2024-03-25T04:37:09;99063.81;;;8.28;70.87
85922;BME280;76459;41.484;22.090;2024-03-25T04:39:35;99056.84;;;8.12;70.73
85922;BME280;76459;41.484;22.090;2024-03-25T04:42:01;99054.94;;;7.83;72.08
85922;BME280;76459;41.484;22.090;2024-03-25T04:44:27;99060.13;;;7.85;72.35
85922;BME280;76459;41.484;22.090;2024-03-25T04:46:53;99065.72;;;7.74;72.57
85922;BME280;76459;41.484;22.090;2024-03-25T04:49:18;99062.13;;;7.79;72.89
85922;BME280;76459;41.484;22.090;2024-03-25T04:51:44;99058.78;;;7.82;72.93
85922;BME280;76459;41.484;22.090;2024-03-25T04:54:09;99073.84;;;7.85;73.37
85922;BME280;76459;41.484;22.090;2024-03-25T04:56:35;99076.78;;;7.93;72.60
85922;BME280;76459;41.484;22.090;2024-03-25T04:59:00;99073.03;;;7.84;72.23
85922;BME280;76459;41.484;22.090;2024-03-25T05:01:27;99074.81;;;7.70;71.96
85922;BME280;76459;41.484;22.090;2024-03-25T05:03:53;99086.38;;;7.67;72.75
85922;BME280;76459;41.484;22.090;2024-03-25T05:06:19;99076.56;;;7.56;72.73
85922;BME280;76459;41.484;22.090;2024-03-25T05:08:44;99069.53;;;7.44;72.41
85922;BME280;76459;41.484;22.090;2024-03-25T05:11:10;99067.16;;;7.33;72.37
85922;BME280;76459;41.484;22.090;2024-03-25T05:13:35;99067.13;;;7.38;72.34
85922;BME280;76459;41.484;22.090;2024-03-25T05:16:01;99069.06;;;7.32;71.71
85922;BME280;76459;41.484;22.090;2024-03-25T05:18:26;99083.03;;;7.36;72.57
85922;BME280;76459;41.484;22.090;2024-03-25T05:20:52;99074.91;;;7.26;71.90
85922;BME280;76459;41.484;22.090;2024-03-25T05:23:17;99068.03;;;7.28;71.45
85922;BME280;76459;41.484;22.090;2024-03-25T05:25:43;99063.97;;;7.20;71.91
85922;BME280;76459;41.484;22.090;2024-03-25T05:28:08;99074.09;;;7.20;71.72
85922;BME280;76459;41.484;22.090;2024-03-25T05:30:34;99071.66;;;7.13;71.73
85922;BME280;76459;41.484;22.090;2024-03-25T05:32:59;99077.97;;;7.14;71.60
85922;BME280;76459;41.484;22.090;2024-03-25T05:35:25;99072.81;;;7.07;70.98
85922;BME280;76459;41.484;22.090;2024-03-25T05:37:50;99070.84;;;7.13;71.43
85922;BME280;76459;41.484;22.090;2024-03-25T05:40:16;99080.63;;;7.24;70.98
85922;BME280;76459;41.484;22.090;2024-03-25T05:42:45;99085.84;;;7.26;71.68
85922;BME280;76459;41.484;22.090;2024-03-25T05:45:11;99085.28;;;7.23;71.36
85922;BME280;76459;41.484;22.090;2024-03-25T05:47:36;99071.00;;;7.32;71.73
85922;BME280;76459;41.484;22.090;2024-03-25T05:50:02;99086.69;;;7.55;71.62
85922;BME280;76459;41.484;22.090;2024-03-25T05:52:30;99092.28;;;7.79;72.77
85922;BME280;76459;41.484;22.090;2024-03-25T05:54:56;99109.69;;;7.93;71.73
85922;BME280;76459;41.484;22.090;2024-03-25T05:57:22;99109.59;;;8.03;71.47
85922;BME280;76459;41.484;22.090;2024-03-25T05:59:47;99116.38;;;8.11;71.34
85922;BME280;76459;41.484;22.090;2024-03-25T06:02:13;99123.50;;;8.12;70.51
85922;BME280;76459;41.484;22.090;2024-03-25T06:04:39;99130.00;;;8.21;70.68
85922;BME280;76459;41.484;22.090;2024-03-25T06:07:05;99137.84;;;8.33;71.59
85922;BME280;76459;41.484;22.090;2024-03-25T06:09:30;99144.13;;;8.39;70.84
85922;BME280;76459;41.484;22.090;2024-03-25T06:11:55;99134.50;;;8.41;71.22
85922;BME280;76459;41.484;22.090;2024-03-25T06:14:21;99142.66;;;8.46;70.39
85922;BME280;76459;41.484;22.090;2024-03-25T06:16:47;99142.13;;;8.44;70.42
85922;BME280;76459;41.484;22.090;2024-03-25T06:19:12;99145.75;;;8.40;69.46
85922;BME280;76459;41.484;22.090;2024-03-25T06:21:38;99150.03;;;8.22;69.90
85922;BME280;76459;41.484;22.090;2024-03-25T06:24:03;99162.41;;;8.19;71.62
85922;BME280;76459;41.484;22.090;2024-03-25T06:26:29;99160.09;;;8.31;71.01
85922;BME280;76459;41.484;22.090;2024-03-25T06:28:54;99155.88;;;8.44;71.21
85922;BME280;76459;41.484;22.090;2024-03-25T06:31:20;99150.34;;;8.49;70.69
85922;BME280;76459;41.484;22.090;2024-03-25T06:34:04;99160.09;;;8.60;71.00
85922;BME280;76459;41.484;22.090;2024-03-25T06:36:47;99168.50;;;8.69;70.98
85922;BME280;76459;41.484;22.090;2024-03-25T06:39:14;99178.56;;;8.79;70.45
85922;BME280;76459;41.484;22.090;2024-03-25T06:41:39;99175.97;;;8.87;70.26
85922;BME280;76459;41.484;22.090;2024-03-25T06:44:05;99173.00;;;8.84;70.54
85922;BME280;76459;41.484;22.090;2024-03-25T06:46:31;99185.31;;;8.86;70.48
85922;BME280;76459;41.484;22.090;2024-03-25T06:48:57;99185.19;;;8.97;70.22
85922;BME280;76459;41.484;22.090;2024-03-25T06:51:22;99184.03;;;9.03;69.64
85922;BME280;76459;41.484;22.090;2024-03-25T06:53:48;99195.03;;;9.03;70.22
85922;BME280;76459;41.484;22.090;2024-03-25T06:56:14;99190.13;;;9.00;70.23
85922;BME280;76459;41.484;22.090;2024-03-25T06:58:40;99181.34;;;8.98;69.54
85922;BME280;76459;41.484;22.090;2024-03-25T07:01:09;99202.66;;;9.06;69.91
85922;BME280;76459;41.484;22.090;2024-03-25T07:03:37;99204.78;;;9.14;69.56
85922;BME280;76459;41.484;22.090;2024-03-25T07:06:03;99199.63;;;9.07;69.73
85922;BME280;76459;41.484;22.090;2024-03-25T07:08:29;99216.88;;;9.13;69.58
85922;BME280;76459;41.484;22.090;2024-03-25T07:10:58;99206.50;;;9.10;69.40
85922;BME280;76459;41.484;22.090;2024-03-25T07:13:24;99210.06;;;9.10;69.60
85922;BME280;76459;41.484;22.090;2024-03-25T07:15:50;99219.84;;;9.16;69.65
85922;BME280;76459;41.484;22.090;2024-03-25T07:18:16;99219.72;;;9.27;69.88
85922;BME280;76459;41.484;22.090;2024-03-25T07:20:43;99208.50;;;9.23;67.42
85922;BME280;76459;41.484;22.090;2024-03-25T07:23:09;99217.88;;;9.22;67.82
85922;BME280;76459;41.484;22.090;2024-03-25T07:25:35;99218.97;;;9.21;67.21
85922;BME280;76459;41.484;22.090;2024-03-25T07:28:02;99218.16;;;9.20;67.28
85922;BME280;76459;41.484;22.090;2024-03-25T07:30:28;99229.91;;;9.26;67.36
85922;BME280;76459;41.484;22.090;2024-03-25T07:32:58;99229.03;;;9.31;67.60
85922;BME280;76459;41.484;22.090;2024-03-25T07:35:24;99227.63;;;9.33;67.95
85922;BME280;76459;41.484;22.090;2024-03-25T07:37:51;99237.16;;;9.41;67.95
85922;BME280;76459;41.484;22.090;2024-03-25T07:40:20;99227.25;;;9.40;67.22
85922;BME280;76459;41.484;22.090;2024-03-25T07:42:46;99229.03;;;9.49;67.23
85922;BME280;76459;41.484;22.090;2024-03-25T07:45:12;99239.97;;;9.55;67.01
85922;BME280;76459;41.484;22.090;2024-03-25T07:47:38;99242.38;;;9.61;67.08
85922;BME280;76459;41.484;22.090;2024-03-25T07:50:04;99242.00;;;9.68;65.50
85922;BME280;76459;41.484;22.090;2024-03-25T07:52:31;99243.09;;;9.67;64.83
85922;BME280;76459;41.484;22.090;2024-03-25T07:54:57;99239.63;;;9.61;65.05
85922;BME280;76459;41.484;22.090;2024-03-25T07:57:23;99241.56;;;9.61;65.22
85922;BME280;76459;41.484;22.090;2024-03-25T07:59:48;99245.41;;;9.60;65.77
85922;BME280;76459;41.484;22.090;2024-03-25T08:02:15;99261.91;;;9.60;65.98
85922;BME280;76459;41.484;22.090;2024-03-25T08:04:41;99267.94;;;9.62;65.61
85922;BME280;76459;41.484;22.090;2024-03-25T08:07:07;99268.69;;;9.67;65.84
85922;BME280;76459;41.484;22.090;2024-03-25T08:09:32;99271.88;;;9.74;65.86
85922;BME280;76459;41.484;22.090;2024-03-25T08:11:58;99279.84;;;9.76;64.90
85922;BME280;76459;41.484;22.090;2024-03-25T08:14:23;99272.41;;;9.76;65.32
85922;BME280;76459;41.484;22.090;2024-03-25T08:16:49;99271.88;;;9.74;65.04
85922;BME280;76459;41.484;22.090;2024-03-25T08:19:15;99274.28;;;9.81;65.24
85922;BME280;76459;41.484;22.090;2024-03-25T08:21:40;99283.72;;;9.94;64.50
85922;BME280;76459;41.484;22.090;2024-03-25T08:24:06;99285.06;;;9.96;64.33
85922;BME280;76459;41.484;22.090;2024-03-25T08:26:32;99272.25;;;9.87;64.13
85922;BME280;76459;41.484;22.090;2024-03-25T08:28:58;99282.50;;;10.00;64.51
85922;BME280;76459;41.484;22.090;2024-03-25T08:31:23;99279.56;;;10.15;63.19
85922;BME280;76459;41.484;22.090;2024-03-25T08:33:49;99284.94;;;10.25;62.32
85922;BME280;76459;41.484;22.090;2024-03-25T08:36:15;99295.84;;;10.30;62.39
85922;BME280;76459;41.484;22.090;2024-03-25T08:38:40;99282.22;;;10.39;60.92
85922;BME280;76459;41.484;22.090;2024-03-25T08:41:06;99278.34;;;10.40;59.26
85922;BME280;76459;41.484;22.090;2024-03-25T08:43:31;99287.44;;;10.41;59.23
85922;BME280;76459;41.484;22.090;2024-03-25T08:45:57;99285.78;;;10.39;58.55
85922;BME280;76459;41.484;22.090;2024-03-25T08:48:23;99295.22;;;10.52;57.75
85922;BME280;76459;41.484;22.090;2024-03-25T08:50:49;99295.59;;;10.64;56.66
85922;BME280;76459;41.484;22.090;2024-03-25T08:53:15;99299.88;;;10.71;55.78
85922;BME280;76459;41.484;22.090;2024-03-25T08:55:47;99294.88;;;10.73;55.15
85922;BME280;76459;41.484;22.090;2024-03-25T08:58:14;99290.47;;;10.72;54.01
85922;BME280;76459;41.484;22.090;2024-03-25T09:00:40;99297.03;;;10.76;53.36
85922;BME280;76459;41.484;22.090;2024-03-25T09:03:06;99293.06;;;10.82;52.97
85922;BME280;76459;41.484;22.090;2024-03-25T09:05:32;99294.13;;;11.00;52.38
85922;BME280;76459;41.484;22.090;2024-03-25T09:07:58;99289.84;;;11.07;51.51
85922;BME280;76459;41.484;22.090;2024-03-25T09:10:25;99298.94;;;11.21;52.54
85922;BME280;76459;41.484;22.090;2024-03-25T09:13:09;99296.72;;;11.37;51.27
85922;BME280;76459;41.484;22.090;2024-03-25T09:15:35;99286.81;;;11.50;49.66
85922;BME280;76459;41.484;22.090;2024-03-25T09:18:00;99304.78;;;11.61;49.23
85922;BME280;76459;41.484;22.090;2024-03-25T09:20:26;99301.91;;;11.66;48.63
85922;BME280;76459;41.484;22.090;2024-03-25T09:22:52;99309.06;;;11.67;48.72
85922;BME280;76459;41.484;22.090;2024-03-25T09:25:18;99302.13;;;11.70;48.63
85922;BME280;76459;41.484;22.090;2024-03-25T09:27:47;99293.03;;;11.69;48.24
85922;BME280;76459;41.484;22.090;2024-03-25T09:30:13;99310.69;;;11.68;48.55
85922;BME280;76459;41.484;22.090;2024-03-25T09:32:42;99315.91;;;11.70;48.45
85922;BME280;76459;41.484;22.090;2024-03-25T09:35:11;99301.38;;;11.64;48.45
85922;BME280;76459;41.484;22.090;2024-03-25T09:37:38;99307.31;;;11.71;46.43
85922;BME280;76459;41.484;22.090;2024-03-25T09:40:04;99303.56;;;11.67;46.74
85922;BME280;76459;41.484;22.090;2024-03-25T09:42:45;99314.97;;;11.74;48.12
85922;BME280;76459;41.484;22.090;2024-03-25T09:45:15;99315.59;;;11.71;48.23
85922;BME280;76459;41.484;22.090;2024-03-25T09:47:46;99316.84;;;11.65;47.18
85922;BME280;76459;41.484;22.090;2024-03-25T09:50:15;99314.97;;;11.74;49.03
85922;BME280;76459;41.484;22.090;2024-03-25T09:52:48;99317.31;;;11.95;50.21
85922;BME280;76459;41.484;22.090;2024-03-25T09:55:14;99310.97;;;12.08;46.72
85922;BME280;76459;41.484;22.090;2024-03-25T09:57:41;99298.44;;;12.24;45.53
85922;BME280;76459;41.484;22.090;2024-03-25T10:00:09;99294.75;;;12.51;45.49
85922;BME280;76459;41.484;22.090;2024-03-25T10:02:38;99297.75;;;12.63;46.19
85922;BME280;76459;41.484;22.090;2024-03-25T10:05:05;99300.28;;;12.74;45.87
85922;BME280;76459;41.484;22.090;2024-03-25T10:07:32;99299.47;;;12.73;46.43
85922;BME280;76459;41.484;22.090;2024-03-25T10:09:58;99298.56;;;12.64;46.01
85922;BME280;76459;41.484;22.090;2024-03-25T10:12:26;99308.38;;;12.70;46.83
85922;BME280;76459;41.484;22.090;2024-03-25T10:14:51;99314.34;;;12.63;47.11
85922;BME280;76459;41.484;22.090;2024-03-25T10:17:17;99311.41;;;12.60;47.80
85922;BME280;76459;41.484;22.090;2024-03-25T10:19:42;99304.75;;;12.61;47.43
85922;BME280;76459;41.484;22.090;2024-03-25T10:22:08;99309.31;;;12.65;46.00
85922;BME280;76459;41.484;22.090;2024-03-25T10:24:41;99314.16;;;12.60;44.19
85922;BME280;76459;41.484;22.090;2024-03-25T10:27:21;99314.50;;;12.58;42.87
85922;BME280;76459;41.484;22.090;2024-03-25T10:29:55;99313.78;;;12.53;40.94
85922;BME280;76459;41.484;22.090;2024-03-25T10:32:21;99318.50;;;12.52;41.50
85922;BME280;76459;41.484;22.090;2024-03-25T10:34:50;99310.84;;;12.49;42.19
85922;BME280;76459;41.484;22.090;2024-03-25T10:37:17;99320.13;;;12.53;41.57
85922;BME280;76459;41.484;22.090;2024-03-25T10:39:50;99328.72;;;12.52;43.21
85922;BME280;76459;41.484;22.090;2024-03-25T10:42:21;99324.84;;;12.53;42.31
85922;BME280;76459;41.484;22.090;2024-03-25T10:44:48;99330.69;;;12.51;42.72
85922;BME280;76459;41.484;22.090;2024-03-25T10:47:20;99325.31;;;12.55;42.61
85922;BME280;76459;41.484;22.090;2024-03-25T10:50:03;99331.75;;;12.64;42.19
85922;BME280;76459;41.484;22.090;2024-03-25T10:52:32;99322.47;;;12.60;42.13
85922;BME280;76459;41.484;22.090;2024-03-25T10:54:58;99329.63;;;12.61;41.23
85922;BME280;76459;41.484;22.090;2024-03-25T10:57:24;99329.78;;;12.64;41.33
85922;BME280;76459;41.484;22.090;2024-03-25T10:59:51;99326.53;;;12.62;40.55
85922;BME280;76459;41.484;22.090;2024-03-25T11:02:19;99327.25;;;12.68;40.79
85922;BME280;76459;41.484;22.090;2024-03-25T11:04:45;99315.53;;;12.71;41.45
85922;BME280;76459;41.484;22.090;2024-03-25T11:07:13;99315.53;;;12.71;41.66
85922;BME280;76459;41.484;22.090;2024-03-25T11:09:40;99320.91;;;12.67;40.96
85922;BME280;76459;41.484;22.090;2024-03-25T11:12:07;99313.03;;;12.61;40.37
85922;BME280;76459;41.484;22.090;2024-03-25T11:14:35;99313.41;;;12.68;40.89
85922;BME280;76459;41.484;22.090;2024-03-25T11:17:01;99319.44;;;12.70;40.12
85922;BME280;76459;41.484;22.090;2024-03-25T11:19:29;99317.16;;;12.72;40.44
85922;BME280;76459;41.484;22.090;2024-03-25T11:22:07;99320.44;;;12.74;41.65
85922;BME280;76459;41.484;22.090;2024-03-25T11:24:34;99314.56;;;12.67;41.46
85922;BME280;76459;41.484;22.090;2024-03-25T11:27:02;99324.72;;;12.58;41.17
85922;BME280;76459;41.484;22.090;2024-03-25T11:29:28;99305.09;;;12.46;40.83
85922;BME280;76459;41.484;22.090;2024-03-25T11:31:59;99319.72;;;12.46;40.54
85922;BME280;76459;41.484;22.090;2024-03-25T11:34:25;99320.75;;;12.50;41.47
85922;BME280;76459;41.484;22.090;2024-03-25T11:36:51;99308.75;;;12.55;39.29
85922;BME280;76459;41.484;22.090;2024-03-25T11:39:21;99314.84;;;12.65;39.92
85922;BME280;76459;41.484;22.090;2024-03-25T11:41:47;99305.16;;;12.77;39.01
85922;BME280;76459;41.484;22.090;2024-03-25T11:44:13;99307.72;;;12.95;38.50
85922;BME280;76459;41.484;22.090;2024-03-25T11:46:40;99295.63;;;13.14;37.73
85922;BME280;76459;41.484;22.090;2024-03-25T11:49:13;99298.50;;;13.31;37.38
85922;BME280;76459;41.484;22.090;2024-03-25T11:51:40;99293.50;;;13.42;37.91
85922;BME280;76459;41.484;22.090;2024-03-25T11:54:07;99302.66;;;13.51;37.20
85922;BME280;76459;41.484;22.090;2024-03-25T11:56:36;99284.91;;;13.52;36.78
85922;BME280;76459;41.484;22.090;2024-03-25T11:59:03;99281.97;;;13.57;37.25
85922;BME280;76459;41.484;22.090;2024-03-25T12:01:29;99272.25;;;13.68;36.95
85922;BME280;76459;41.484;22.090;2024-03-25T12:03:55;99285.63;;;13.83;36.18
85922;BME280;76459;41.484;22.090;2024-03-25T12:06:21;99278.97;;;13.93;37.27
85922;BME280;76459;41.484;22.090;2024-03-25T12:08:46;99295.28;;;14.03;36.71
85922;BME280;76459;41.484;22.090;2024-03-25T12:11:31;99274.75;;;14.04;36.18
85922;BME280;76459;41.484;22.090;2024-03-25T12:13:57;99293.00;;;14.05;35.83
85922;BME280;76459;41.484;22.090;2024-03-25T12:16:23;99287.00;;;14.12;36.28
85922;BME280;76459;41.484;22.090;2024-03-25T12:18:49;99293.81;;;14.15;35.60
85922;BME280;76459;41.484;22.090;2024-03-25T12:21:15;99291.06;;;14.15;35.87
85922;BME280;76459;41.484;22.090;2024-03-25T12:23:42;99282.91;;;14.18;35.20
85922;BME280;76459;41.484;22.090;2024-03-25T12:26:08;99271.34;;;14.16;35.34
85922;BME280;76459;41.484;22.090;2024-03-25T12:28:34;99281.44;;;14.29;34.71
85922;BME280;76459;41.484;22.090;2024-03-25T12:31:07;99287.16;;;14.33;33.66
85922;BME280;76459;41.484;22.090;2024-03-25T12:33:43;99286.97;;;14.38;33.85
85922;BME280;76459;41.484;22.090;2024-03-25T12:36:12;99284.06;;;14.34;33.09
85922;BME280;76459;41.484;22.090;2024-03-25T12:38:38;99266.13;;;14.23;33.58
85922;BME280;76459;41.484;22.090;2024-03-25T12:41:08;99280.63;;;14.29;33.51
85922;BME280;76459;41.484;22.090;2024-03-25T12:43:36;99278.50;;;14.34;33.67
85922;BME280;76459;41.484;22.090;2024-03-25T12:46:02;99268.09;;;14.31;32.81
85922;BME280;76459;41.484;22.090;2024-03-25T12:48:29;99275.41;;;14.36;32.64
85922;BME280;76459;41.484;22.090;2024-03-25T12:50:55;99270.34;;;14.38;32.44
85922;BME280;76459;41.484;22.090;2024-03-25T12:53:20;99275.75;;;14.43;33.19